createdAt,value
2022-12-01T00:01:17.841Z,85.51
2022-12-01T00:03:44.379Z,85.98
2022-12-01T00:06:17.793Z,86.62
2022-12-01T00:09:06.190Z,85.90
2022-12-01T00:11:34.258Z,86.39
2022-12-01T00:14:01.426Z,85.33
2022-12-01T00:16:28.127Z,85.05
2022-12-01T00:18:54.882Z,84.48
2022-12-01T00:21:23.680Z,84.96
2022-12-01T00:23:52.978Z,85.17
2022-12-01T00:26:20.790Z,85.06
2022-12-01T00:28:52.420Z,85.32
2022-12-01T00:31:19.830Z,84.99
2022-12-01T00:33:46.385Z,86.88
2022-12-01T00:36:13.599Z,87.17
2022-12-01T00:38:40.108Z,86.80
2022-12-01T00:41:06.547Z,86.58
2022-12-01T00:43:33.078Z,85.81
2022-12-01T00:45:59.684Z,86.37
2022-12-01T00:48:26.178Z,86.47
2022-12-01T00:50:54.065Z,85.73
2022-12-01T00:53:21.073Z,86.23
2022-12-01T00:55:47.576Z,86.51
2022-12-01T00:58:14.024Z,85.36
2022-12-01T01:00:40.584Z,85.66
2022-12-01T01:03:07.068Z,85.48
2022-12-01T01:05:37.929Z,85.59
2022-12-01T01:08:09.202Z,84.95
2022-12-01T01:10:46.896Z,85.67
2022-12-01T01:13:14.410Z,85.97
2022-12-01T01:15:41.477Z,84.67
2022-12-01T01:18:09.701Z,86.01
2022-12-01T01:20:36.229Z,86.50
2022-12-01T01:23:02.660Z,86.89
2022-12-01T01:25:29.043Z,86.78
2022-12-01T01:27:55.435Z,87.75
2022-12-01T01:30:21.995Z,87.13
2022-12-01T01:32:48.475Z,85.98
2022-12-01T01:35:14.994Z,85.53
2022-12-01T01:37:41.600Z,84.58
2022-12-01T01:40:08.814Z,84.84
2022-12-01T01:42:35.312Z,85.40
2022-12-01T01:45:01.807Z,85.09
2022-12-01T01:47:32.898Z,84.04
2022-12-01T01:50:06.577Z,85.16
2022-12-01T01:52:35.967Z,83.68
2022-12-01T01:55:02.874Z,84.21
2022-12-01T01:57:33.288Z,84.25
2022-12-01T02:00:08.000Z,83.37
2022-12-01T02:02:40.735Z,84.22
2022-12-01T02:05:11.170Z,83.69
2022-12-01T02:07:39.314Z,83.48
2022-12-01T02:10:09.029Z,84.69
2022-12-01T02:13:09.736Z,81.18
2022-12-01T02:15:44.884Z,82.76
2022-12-01T02:18:41.621Z,85.01
2022-12-01T02:21:13.837Z,84.85
2022-12-01T02:24:13.888Z,84.71
2022-12-01T02:26:49.680Z,84.40
2022-12-01T02:29:33.626Z,83.20
2022-12-01T02:32:25.180Z,84.12
2022-12-01T02:35:18.872Z,83.40
2022-12-01T02:38:12.521Z,80.61
2022-12-01T02:41:01.648Z,81.81
2022-12-01T02:43:43.279Z,83.22
2022-12-01T02:46:15.130Z,82.18
2022-12-01T02:48:46.810Z,81.43
2022-12-01T02:51:24.894Z,81.57
2022-12-01T02:53:52.553Z,82.12
2022-12-01T02:56:21.823Z,81.71
2022-12-01T02:58:48.283Z,82.69
2022-12-01T03:01:46.231Z,81.44
2022-12-01T03:04:40.072Z,82.03
2022-12-01T03:07:37.641Z,82.36
2022-12-01T03:10:20.647Z,81.45
2022-12-01T03:13:05.272Z,81.42
2022-12-01T03:16:04.681Z,80.63
2022-12-01T03:18:47.057Z,81.22
2022-12-01T03:21:38.270Z,80.32
2022-12-01T03:24:14.120Z,81.03
2022-12-01T03:26:44.604Z,79.80
2022-12-01T03:29:18.080Z,80.37
2022-12-01T03:31:47.142Z,80.57
2022-12-01T03:34:19.984Z,80.88
2022-12-01T03:36:51.875Z,80.02
2022-12-01T03:39:23.716Z,79.56
2022-12-01T03:42:15.674Z,80.05
2022-12-01T03:44:49.575Z,80.38
2022-12-01T03:47:20.909Z,78.86
2022-12-01T03:49:50.892Z,78.70
2022-12-01T03:52:33.511Z,79.68
2022-12-01T03:55:14.372Z,80.53
2022-12-01T03:58:02.362Z,80.37
2022-12-01T04:00:31.186Z,80.18
2022-12-01T04:02:59.670Z,79.48
2022-12-01T04:05:26.881Z,79.91
2022-12-01T04:07:53.606Z,79.35
2022-12-01T04:10:20.247Z,80.00
2022-12-01T04:12:46.659Z,80.52
2022-12-01T04:15:14.509Z,81.47
2022-12-01T04:17:45.149Z,80.31
2022-12-01T04:20:14.292Z,79.70
2022-12-01T04:22:41.449Z,79.68
2022-12-01T04:25:08.648Z,79.61
2022-12-01T04:27:35.789Z,79.15
2022-12-01T04:30:03.043Z,80.03
2022-12-01T04:32:29.439Z,80.11
2022-12-01T04:34:55.843Z,80.33
2022-12-01T04:37:22.333Z,79.48
2022-12-01T04:39:49.120Z,80.45
2022-12-01T04:42:15.814Z,79.41
2022-12-01T04:44:42.277Z,78.03
2022-12-01T04:47:08.857Z,78.43
2022-12-01T04:49:37.151Z,77.56
2022-12-01T04:52:03.843Z,78.95
2022-12-01T04:54:30.310Z,79.41
2022-12-01T04:56:56.777Z,78.12
2022-12-01T04:59:23.222Z,79.29
2022-12-01T05:01:49.670Z,80.48
2022-12-01T05:04:16.297Z,78.93
2022-12-01T05:06:43.354Z,78.42
2022-12-01T05:09:17.119Z,78.61
2022-12-01T05:11:44.859Z,78.68
2022-12-01T05:14:11.349Z,78.83
2022-12-01T05:16:37.828Z,78.72
2022-12-01T05:19:24.797Z,79.19
2022-12-01T05:21:52.009Z,79.39
2022-12-01T05:24:19.550Z,79.31
2022-12-01T05:26:46.320Z,78.85
2022-12-01T05:29:13.944Z,79.28
2022-12-01T05:31:41.077Z,78.68
2022-12-01T05:34:08.428Z,77.84
2022-12-01T05:36:34.921Z,80.90
2022-12-01T05:39:01.454Z,78.45
2022-12-01T05:41:27.899Z,76.83
2022-12-01T05:43:54.362Z,78.18
2022-12-01T05:46:20.870Z,78.54
2022-12-01T05:48:47.389Z,77.96
2022-12-01T05:51:16.037Z,77.82
2022-12-01T05:53:43.480Z,79.90
2022-12-01T05:56:10.014Z,78.38
2022-12-01T05:58:36.533Z,78.48
2022-12-01T06:01:03.240Z,78.13
2022-12-01T06:03:29.690Z,79.03
2022-12-01T06:05:56.213Z,77.85
2022-12-01T06:08:22.630Z,77.37
2022-12-01T06:10:49.078Z,76.33
2022-12-01T06:13:15.558Z,75.72
2022-12-01T06:15:42.312Z,75.77
2022-12-01T06:18:09.301Z,76.53
2022-12-01T06:20:35.951Z,77.54
2022-12-01T06:23:02.740Z,77.34
2022-12-01T06:25:29.228Z,77.51
2022-12-01T06:27:59.211Z,76.66
2022-12-01T06:30:26.061Z,77.84
2022-12-01T06:32:52.651Z,78.86
2022-12-01T06:35:19.651Z,77.39
2022-12-01T06:37:46.134Z,77.02
2022-12-01T06:40:12.798Z,79.01
2022-12-01T06:42:39.211Z,77.76
2022-12-01T06:45:06.068Z,79.34
2022-12-01T06:47:32.500Z,78.60
2022-12-01T06:49:59.034Z,78.20
2022-12-01T06:52:25.466Z,77.57
2022-12-01T06:54:51.918Z,77.50
2022-12-01T06:57:18.724Z,78.95
2022-12-01T06:59:45.338Z,78.96
2022-12-01T07:02:12.172Z,78.11
2022-12-01T07:04:38.825Z,79.89
2022-12-01T07:07:06.354Z,78.42
2022-12-01T07:09:32.896Z,78.65
2022-12-01T07:11:59.363Z,78.95
2022-12-01T07:14:27.055Z,78.95
2022-12-01T07:16:53.808Z,77.24
2022-12-01T07:19:20.369Z,78.09
2022-12-01T07:21:46.885Z,77.41
2022-12-01T07:24:13.847Z,77.89
2022-12-01T07:26:41.297Z,77.89
2022-12-01T07:29:09.189Z,76.77
2022-12-01T07:31:36.735Z,77.40
2022-12-01T07:34:03.514Z,78.08
2022-12-01T07:36:30.028Z,78.58
2022-12-01T07:38:56.662Z,78.84
2022-12-01T07:41:23.218Z,77.79
2022-12-01T07:43:50.042Z,76.13
2022-12-01T07:46:27.351Z,77.73
2022-12-01T07:48:55.716Z,76.41
2022-12-01T07:51:23.507Z,77.96
2022-12-01T07:53:51.056Z,77.73
2022-12-01T07:56:19.093Z,78.20
2022-12-01T07:58:45.649Z,78.17
2022-12-01T08:01:17.176Z,78.78
2022-12-01T08:03:43.838Z,77.81
2022-12-01T08:06:11.710Z,78.36
2022-12-01T08:08:39.769Z,77.93
2022-12-01T08:11:10.080Z,78.61
2022-12-01T08:13:36.608Z,77.94
2022-12-01T08:16:05.395Z,78.38
2022-12-01T08:18:35.475Z,78.24
2022-12-01T08:21:01.956Z,76.80
2022-12-01T08:23:28.436Z,79.00
2022-12-01T08:25:55.044Z,78.64
2022-12-01T08:28:21.510Z,79.28
2022-12-01T08:30:48.104Z,78.26
2022-12-01T08:33:15.856Z,76.69
2022-12-01T08:35:42.454Z,77.97
2022-12-01T08:38:09.324Z,84.07
2022-12-01T08:40:35.827Z,84.97
2022-12-01T08:43:02.405Z,85.14
2022-12-01T08:45:28.922Z,86.88
2022-12-01T08:47:58.988Z,88.29
2022-12-01T08:50:27.233Z,89.36
2022-12-01T08:52:54.255Z,89.21
2022-12-01T08:55:22.227Z,89.26
2022-12-01T08:57:48.706Z,90.49
2022-12-01T09:00:16.177Z,90.77
2022-12-01T09:02:42.643Z,91.38
2022-12-01T09:05:09.722Z,90.75
2022-12-01T09:07:36.248Z,90.28
2022-12-01T09:10:02.747Z,90.88
2022-12-01T09:12:30.181Z,90.61
2022-12-01T09:14:56.768Z,89.94
2022-12-01T09:17:23.819Z,90.20
2022-12-01T09:19:50.497Z,88.96
2022-12-01T09:22:17.321Z,89.05
2022-12-01T09:24:43.921Z,89.14
2022-12-01T09:27:10.451Z,89.78
2022-12-01T09:29:36.958Z,89.54
2022-12-01T09:32:03.487Z,89.85
2022-12-01T09:34:30.062Z,89.42
2022-12-01T09:36:57.623Z,90.03
2022-12-01T09:39:24.666Z,89.59
2022-12-01T09:41:58.433Z,89.58
2022-12-01T09:44:43.901Z,89.57
2022-12-01T09:47:21.928Z,89.30
2022-12-01T09:50:24.016Z,89.38
2022-12-01T09:53:03.081Z,89.29
2022-12-01T09:55:31.587Z,88.98
2022-12-01T09:58:00.961Z,89.18
2022-12-01T10:00:31.627Z,89.92
2022-12-01T10:03:13.911Z,89.59
2022-12-01T10:06:18.561Z,88.92
2022-12-01T10:08:36.751Z,88.23
2022-12-01T10:11:27.505Z,90.24
2022-12-01T10:13:54.021Z,90.15
2022-12-01T10:16:28.793Z,88.67
2022-12-01T10:19:18.192Z,88.27
2022-12-01T10:21:55.466Z,89.46
2022-12-01T10:24:31.649Z,88.76
2022-12-01T10:27:16.251Z,89.73
2022-12-01T10:29:58.656Z,89.28
2022-12-01T10:32:53.911Z,89.32
2022-12-01T10:35:26.907Z,89.31
2022-12-01T10:38:07.239Z,89.05
2022-12-01T10:40:35.268Z,89.22
2022-12-01T10:43:02.399Z,88.82
2022-12-01T10:45:33.836Z,88.30
2022-12-01T10:48:20.642Z,88.26
2022-12-01T10:50:54.922Z,87.21
2022-12-01T10:53:24.445Z,87.71
2022-12-01T10:55:58.261Z,86.67
2022-12-01T10:58:24.686Z,87.55
2022-12-01T11:01:16.884Z,87.94
2022-12-01T11:03:43.875Z,87.96
2022-12-01T11:06:10.850Z,87.38
2022-12-01T11:08:45.490Z,87.18
2022-12-01T11:11:34.264Z,86.98
2022-12-01T11:14:05.172Z,86.48
2022-12-01T11:16:33.859Z,86.94
2022-12-01T11:19:28.224Z,85.72
2022-12-01T11:21:57.770Z,86.11
2022-12-01T11:24:30.740Z,86.80
2022-12-01T11:26:59.187Z,86.75
2022-12-01T11:29:35.993Z,86.50
2022-12-01T11:32:14.318Z,86.84
2022-12-01T11:34:40.805Z,86.37
2022-12-01T11:37:15.257Z,86.15
2022-12-01T11:39:44.499Z,85.28
2022-12-01T11:42:13.649Z,87.29
2022-12-01T11:44:51.970Z,86.06
2022-12-01T11:47:23.749Z,86.31
2022-12-01T11:50:02.900Z,87.76
2022-12-01T11:52:32.071Z,85.82
2022-12-01T11:57:52.362Z,84.46
2022-12-01T12:00:20.582Z,84.99
2022-12-01T12:02:56.064Z,85.88
2022-12-01T12:05:42.239Z,86.87
2022-12-01T12:08:20.802Z,86.93
2022-12-01T12:10:47.231Z,86.79
2022-12-01T12:13:16.399Z,87.74
2022-12-01T12:16:01.090Z,87.44
2022-12-01T12:18:46.247Z,86.21
2022-12-01T12:21:41.277Z,84.50
2022-12-01T12:24:13.523Z,83.03
2022-12-01T12:27:10.865Z,83.40
2022-12-01T12:29:46.068Z,84.70
2022-12-01T12:32:54.644Z,85.66
2022-12-01T12:35:39.913Z,85.12
2022-12-01T12:38:40.574Z,85.12
2022-12-01T12:41:22.192Z,83.90
2022-12-01T12:44:10.348Z,84.51
2022-12-01T12:47:06.885Z,84.93
2022-12-01T12:49:52.174Z,84.14
2022-12-01T12:52:24.021Z,84.58
2022-12-01T12:54:58.927Z,86.11
2022-12-01T12:57:35.808Z,85.71
2022-12-01T13:00:13.578Z,85.76
2022-12-01T13:03:10.805Z,85.13
2022-12-01T13:05:57.517Z,85.64
2022-12-01T13:08:59.181Z,85.25
2022-12-01T13:11:31.935Z,85.96
2022-12-01T13:14:07.343Z,85.49
2022-12-01T13:16:37.333Z,84.44
2022-12-01T13:19:19.360Z,85.32
2022-12-01T13:21:49.129Z,85.15
2022-12-01T13:24:25.079Z,86.26
2022-12-01T13:26:56.906Z,86.28
2022-12-01T13:29:25.840Z,85.39
2022-12-01T13:31:54.456Z,86.45
2022-12-01T13:34:38.391Z,85.81
2022-12-01T13:37:05.310Z,86.69
2022-12-01T13:39:35.749Z,85.12
2022-12-01T13:42:07.060Z,85.94
2022-12-01T13:44:43.145Z,84.90
2022-12-01T13:47:12.655Z,86.10
2022-12-01T13:49:46.148Z,84.66
2022-12-01T13:52:15.467Z,85.29
2022-12-01T13:55:08.686Z,84.87
2022-12-01T13:58:13.129Z,85.78
2022-12-01T14:00:40.057Z,86.26
2022-12-01T14:03:12.813Z,85.14
2022-12-01T14:05:42.225Z,85.29
2022-12-01T14:08:23.406Z,85.68
2022-12-01T14:11:29.713Z,86.30
2022-12-01T14:14:12.168Z,86.30
2022-12-01T14:16:47.948Z,85.63
2022-12-01T14:20:08.241Z,84.82
2022-12-01T14:22:45.475Z,85.63
2022-12-01T14:25:20.787Z,86.77
2022-12-01T14:27:50.614Z,86.22
2022-12-01T14:30:45.880Z,87.45
2022-12-01T14:33:44.966Z,87.71
2022-12-01T14:36:26.949Z,87.34
2022-12-01T14:38:59.598Z,87.34
2022-12-01T14:41:46.759Z,88.33
2022-12-01T14:44:39.588Z,87.24
2022-12-01T14:47:22.991Z,87.13
2022-12-01T14:50:12.131Z,87.84
2022-12-01T14:52:43.519Z,87.90
2022-12-01T14:55:18.192Z,88.54
2022-12-01T14:57:52.409Z,88.31
2022-12-01T15:00:24.317Z,87.94
2022-12-01T15:03:14.137Z,88.54
2022-12-01T15:05:43.502Z,88.43
2022-12-01T15:08:40.898Z,88.93
2022-12-01T15:11:25.384Z,88.87
2022-12-01T15:13:54.508Z,88.80
2022-12-01T15:16:23.795Z,88.35
2022-12-01T15:18:50.764Z,89.68
2022-12-01T15:21:21.992Z,89.17
2022-12-01T15:24:00.435Z,88.52
2022-12-01T15:26:37.218Z,89.03
2022-12-01T15:29:16.679Z,89.11
2022-12-01T15:31:47.517Z,88.70
2022-12-01T15:34:18.244Z,88.45
2022-12-01T15:36:45.630Z,88.87
2022-12-01T15:39:30.357Z,88.98
2022-12-01T15:41:57.037Z,89.77
2022-12-01T15:44:28.448Z,89.63
2022-12-01T15:46:55.148Z,88.92
2022-12-01T15:49:29.268Z,89.12
2022-12-01T15:52:05.739Z,90.27
2022-12-01T15:54:32.585Z,89.50
2022-12-01T15:56:59.773Z,89.58
2022-12-01T15:59:31.183Z,89.67
2022-12-01T16:01:58.459Z,88.99
2022-12-01T16:04:28.338Z,88.52
2022-12-01T16:07:09.937Z,87.91
2022-12-01T16:09:59.724Z,89.50
2022-12-01T16:12:32.989Z,88.92
2022-12-01T16:15:06.865Z,89.01
2022-12-01T16:17:51.285Z,89.76
2022-12-01T16:20:21.702Z,90.05
2022-12-01T16:22:56.720Z,89.55
2022-12-01T16:25:39.792Z,88.88
2022-12-01T16:28:17.289Z,90.09
2022-12-01T16:30:43.759Z,90.45
2022-12-01T16:33:17.115Z,89.79
2022-12-01T16:35:44.032Z,90.65
2022-12-01T16:38:16.221Z,90.62
2022-12-01T16:40:43.515Z,90.70
2022-12-01T16:43:21.004Z,90.34
2022-12-01T16:45:52.760Z,90.24
2022-12-01T16:48:20.390Z,89.32
2022-12-01T16:50:48.204Z,90.05
2022-12-01T16:53:14.711Z,90.47
2022-12-01T16:55:54.384Z,91.01
2022-12-01T16:58:21.175Z,91.21
2022-12-01T17:00:52.517Z,91.48
2022-12-01T17:03:24.412Z,90.62
2022-12-01T17:05:51.727Z,90.69
2022-12-01T17:08:18.833Z,91.04
2022-12-01T17:10:49.504Z,90.88
2022-12-01T17:13:16.800Z,90.42
2022-12-01T17:15:45.516Z,90.53
2022-12-01T17:18:13.202Z,91.05
2022-12-01T17:20:39.775Z,90.99
2022-12-01T17:23:06.434Z,91.35
2022-12-01T17:25:33.052Z,90.98
2022-12-01T17:27:59.710Z,91.80
2022-12-01T17:30:26.568Z,91.26
2022-12-01T17:32:52.993Z,91.96
2022-12-01T17:35:19.450Z,91.71
2022-12-01T17:37:45.870Z,92.16
2022-12-01T17:40:16.257Z,91.84
2022-12-01T17:42:46.955Z,92.37
2022-12-01T17:45:17.514Z,91.72
2022-12-01T17:47:43.965Z,91.85
2022-12-01T17:50:10.778Z,91.63
2022-12-01T17:52:37.334Z,92.56
2022-12-01T17:55:04.341Z,92.41
2022-12-01T17:57:30.966Z,92.79
2022-12-01T17:59:57.430Z,92.44
2022-12-01T18:02:24.061Z,92.53
2022-12-01T18:04:51.008Z,93.05
2022-12-01T18:07:17.667Z,93.44
2022-12-01T18:09:44.062Z,93.35
2022-12-01T18:12:10.842Z,93.71
2022-12-01T18:14:38.265Z,92.97
2022-12-01T18:17:05.572Z,93.47
2022-12-01T18:19:32.030Z,93.16
2022-12-01T18:21:58.514Z,93.03
2022-12-01T18:24:24.986Z,93.00
2022-12-01T18:26:51.547Z,92.68
2022-12-01T18:29:25.872Z,93.52
2022-12-01T18:31:56.879Z,92.71
2022-12-01T18:34:23.849Z,93.16
2022-12-01T18:36:50.349Z,92.65
2022-12-01T18:39:16.891Z,93.30
2022-12-01T18:41:43.802Z,92.60
2022-12-01T18:44:10.398Z,93.08
2022-12-01T18:46:37.008Z,93.07
2022-12-01T18:49:04.689Z,93.56
2022-12-01T18:51:33.440Z,93.28
2022-12-01T18:54:01.673Z,92.88
2022-12-01T18:56:28.838Z,93.20
2022-12-01T18:58:56.362Z,93.63
2022-12-01T19:01:37.328Z,93.08
2022-12-01T19:04:05.687Z,93.06
2022-12-01T19:06:34.299Z,93.54
2022-12-01T19:09:03.523Z,92.85
2022-12-01T19:11:30.212Z,92.77
2022-12-01T19:13:57.653Z,92.59
2022-12-01T19:16:24.314Z,93.53
2022-12-01T19:18:51.158Z,93.10
2022-12-01T19:21:19.581Z,92.79
2022-12-01T19:23:47.313Z,92.47
2022-12-01T19:26:17.661Z,92.36
2022-12-01T19:28:48.127Z,93.29
2022-12-01T19:31:17.105Z,93.36
2022-12-01T19:33:43.632Z,93.22
2022-12-01T19:36:12.314Z,93.16
2022-12-01T19:38:39.777Z,93.07
2022-12-01T19:41:07.451Z,93.53
2022-12-01T19:43:35.386Z,93.67
2022-12-01T19:46:13.786Z,93.56
2022-12-01T19:48:41.218Z,92.22
2022-12-01T19:51:15.108Z,92.74
2022-12-01T19:53:41.635Z,93.49
2022-12-01T19:56:08.173Z,93.65
2022-12-01T19:58:34.879Z,93.71
2022-12-01T20:01:06.661Z,94.40
2022-12-01T20:03:33.568Z,93.95
2022-12-01T20:06:12.850Z,94.03
2022-12-01T20:08:39.564Z,93.23
2022-12-01T20:11:07.109Z,94.09
2022-12-01T20:13:35.604Z,93.82
2022-12-01T20:16:09.530Z,93.72
2022-12-01T20:18:36.625Z,93.48
2022-12-01T20:21:15.885Z,93.58
2022-12-01T20:23:47.271Z,93.36
2022-12-01T20:26:14.795Z,93.99
2022-12-01T20:28:41.866Z,94.19
2022-12-01T20:31:11.912Z,94.04
2022-12-01T20:33:39.593Z,94.11
2022-12-01T20:36:07.034Z,93.70
2022-12-01T20:38:34.628Z,94.47
2022-12-01T20:41:01.102Z,94.81
2022-12-01T20:43:28.507Z,95.72
2022-12-01T20:45:55.151Z,95.38
2022-12-01T20:48:22.066Z,94.62
2022-12-01T20:50:48.581Z,95.34
2022-12-01T20:53:15.127Z,95.15
2022-12-01T20:55:41.612Z,95.33
2022-12-01T20:58:11.442Z,95.54
2022-12-01T21:00:40.491Z,94.88
2022-12-01T21:03:07.857Z,95.16
2022-12-01T21:05:34.351Z,95.47
2022-12-01T21:08:01.667Z,95.15
2022-12-01T21:10:28.614Z,94.97
2022-12-01T21:13:21.254Z,94.48
2022-12-01T21:16:01.616Z,94.47
2022-12-01T21:18:38.698Z,94.39
2022-12-01T21:21:11.864Z,94.67
2022-12-01T21:23:38.330Z,95.03
2022-12-01T21:26:13.886Z,93.94
2022-12-01T21:28:40.449Z,94.12
2022-12-01T21:31:15.038Z,94.30
2022-12-01T21:33:42.529Z,94.31
2022-12-01T21:36:22.179Z,94.09
2022-12-01T21:38:53.449Z,93.88
2022-12-01T21:41:27.170Z,94.57
2022-12-01T21:44:02.478Z,95.20
2022-12-01T21:46:29.669Z,94.25
2022-12-01T21:48:56.164Z,94.56
2022-12-01T21:51:24.294Z,93.97
2022-12-01T21:53:53.739Z,94.66
2022-12-01T21:56:23.904Z,94.58
2022-12-01T21:58:51.665Z,95.00
2022-12-01T22:01:32.278Z,95.68
2022-12-01T22:04:02.384Z,96.07
2022-12-01T22:06:40.657Z,95.74
2022-12-01T22:09:26.458Z,95.54
2022-12-01T22:11:55.890Z,95.84
2022-12-01T22:14:32.561Z,96.22
2022-12-01T22:17:05.108Z,96.20
2022-12-01T22:19:45.496Z,95.99
2022-12-01T22:22:11.872Z,95.20
2022-12-01T22:24:47.098Z,95.63
2022-12-01T22:27:35.033Z,95.92
2022-12-01T22:30:13.686Z,96.93
2022-12-01T22:32:58.601Z,96.33
2022-12-01T22:35:29.497Z,96.67
2022-12-01T22:38:11.020Z,96.19
2022-12-01T22:40:47.414Z,96.86
2022-12-01T22:43:17.225Z,96.87
2022-12-01T22:45:47.729Z,97.60
2022-12-01T22:48:38.426Z,97.22
2022-12-01T22:51:14.099Z,97.23
2022-12-01T22:53:41.841Z,96.57
2022-12-01T22:56:30.529Z,96.62
2022-12-01T22:58:57.226Z,96.54
2022-12-01T23:01:31.787Z,96.73
2022-12-01T23:04:26.280Z,96.84
2022-12-01T23:07:02.442Z,97.34
2022-12-01T23:09:39.733Z,96.63
2022-12-01T23:12:12.062Z,97.34
2022-12-01T23:14:51.262Z,97.28
2022-12-01T23:17:25.005Z,96.74
2022-12-01T23:19:52.445Z,97.44
2022-12-01T23:22:19.356Z,97.53
2022-12-01T23:24:46.159Z,97.25
2022-12-01T23:27:18.347Z,97.35
2022-12-01T23:29:44.918Z,96.87
2022-12-01T23:32:12.365Z,97.72
2022-12-01T23:34:38.906Z,97.37
2022-12-01T23:37:32.977Z,97.49
2022-12-01T23:39:59.821Z,97.32
2022-12-01T23:42:26.250Z,97.53
2022-12-01T23:44:53.267Z,96.69
2022-12-01T23:47:24.145Z,97.05
2022-12-01T23:49:57.622Z,97.11
2022-12-01T23:52:29.316Z,97.81
2022-12-01T23:54:55.790Z,97.72
2022-12-01T23:57:24.188Z,97.49
2022-12-01T23:59:54.514Z,97.08
